sensor_id;sensor_type;location;lat;lon;timestamp;temperature;humidity
15152;DHT22;7676;50.900;6.234;2024-02-23T00:03:00;5.50;99.90
15152;DHT22;7676;50.900;6.234;2024-02-23T00:18:04;5.50;99.90
15152;DHT22;7676;50.900;6.234;2024-02-23T00:33:06;5.60;99.90
15152;DHT22;7676;50.900;6.234;2024-02-23T00:48:09;5.50;99.90
15152;DHT22;7676;50.900;6.234;2024-02-23T01:03:11;5.30;99.90
15152;DHT22;7676;50.900;6.234;2024-02-23T01:18:14;5.10;99.90
15152;DHT22;7676;50.900;6.234;2024-02-23T01:33:17;5.10;99.90
15152;DHT22;7676;50.900;6.234;2024-02-23T01:48:20;4.80;99.90
15152;DHT22;7676;50.900;6.234;2024-02-23T02:03:23;4.70;99.90
15152;DHT22;7676;50.900;6.234;2024-02-23T02:18:25;4.70;99.90
15152;DHT22;7676;50.900;6.234;2024-02-23T02:33:28;4.60;99.90
15152;DHT22;7676;50.900;6.234;2024-02-23T02:48:31;4.40;99.90
15152;DHT22;7676;50.900;6.234;2024-02-23T03:03:35;4.30;99.90
15152;DHT22;7676;50.900;6.234;2024-02-23T03:18:37;4.40;99.90
15152;DHT22;7676;50.900;6.234;2024-02-23T03:33:39;4.60;99.90
15152;DHT22;7676;50.900;6.234;2024-02-23T03:48:42;4.50;99.90
15152;DHT22;7676;50.900;6.234;2024-02-23T04:03:45;4.60;99.90
15152;DHT22;7676;50.900;6.234;2024-02-23T04:18:48;4.70;99.90
15152;DHT22;7676;50.900;6.234;2024-02-23T04:33:50;4.60;99.90
15152;DHT22;7676;50.900;6.234;2024-02-23T04:48:53;4.60;99.90
15152;DHT22;7676;50.900;6.234;2024-02-23T05:03:55;4.60;99.90
15152;DHT22;7676;50.900;6.234;2024-02-23T05:18:58;4.60;99.90
15152;DHT22;7676;50.900;6.234;2024-02-23T05:34:01;4.60;99.90
15152;DHT22;7676;50.900;6.234;2024-02-23T05:49:03;4.80;99.90
15152;DHT22;7676;50.900;6.234;2024-02-23T06:04:07;4.60;99.90
15152;DHT22;7676;50.900;6.234;2024-02-23T06:19:10;4.70;99.90
15152;DHT22;7676;50.900;6.234;2024-02-23T06:34:12;4.70;99.90
15152;DHT22;7676;50.900;6.234;2024-02-23T06:49:15;4.30;99.90
15152;DHT22;7676;50.900;6.234;2024-02-23T07:04:17;4.20;99.90
15152;DHT22;7676;50.900;6.234;2024-02-23T07:19:20;4.20;99.90
15152;DHT22;7676;50.900;6.234;2024-02-23T07:34:23;4.40;99.90
15152;DHT22;7676;50.900;6.234;2024-02-23T07:49:25;4.30;99.90
15152;DHT22;7676;50.900;6.234;2024-02-23T08:04:30;4.50;99.90
15152;DHT22;7676;50.900;6.234;2024-02-23T08:19:33;4.60;99.90
15152;DHT22;7676;50.900;6.234;2024-02-23T08:34:35;4.70;99.90
15152;DHT22;7676;50.900;6.234;2024-02-23T08:49:38;4.80;99.90
15152;DHT22;7676;50.900;6.234;2024-02-23T09:04:41;4.90;99.90
15152;DHT22;7676;50.900;6.234;2024-02-23T09:19:44;5.20;99.90
15152;DHT22;7676;50.900;6.234;2024-02-23T09:34:47;5.20;99.90
15152;DHT22;7676;50.900;6.234;2024-02-23T09:49:50;5.50;99.90
15152;DHT22;7676;50.900;6.234;2024-02-23T10:04:54;6.10;99.90
15152;DHT22;7676;50.900;6.234;2024-02-23T10:20:01;6.10;99.90
15152;DHT22;7676;50.900;6.234;2024-02-23T10:35:18;6.10;99.90
15152;DHT22;7676;50.900;6.234;2024-02-23T10:50:24;6.10;99.90
15152;DHT22;7676;50.900;6.234;2024-02-23T11:05:29;6.30;99.90
15152;DHT22;7676;50.900;6.234;2024-02-23T11:20:37;6.70;99.90
15152;DHT22;7676;50.900;6.234;2024-02-23T11:35:46;6.60;99.90
15152;DHT22;7676;50.900;6.234;2024-02-23T11:50:51;6.30;99.90
15152;DHT22;7676;50.900;6.234;2024-02-23T12:05:55;6.50;99.90
15152;DHT22;7676;50.900;6.234;2024-02-23T12:21:05;6.50;99.90
15152;DHT22;7676;50.900;6.234;2024-02-23T12:36:10;6.70;99.90
15152;DHT22;7676;50.900;6.234;2024-02-23T12:51:12;7.40;99.90
15152;DHT22;7676;50.900;6.234;2024-02-23T13:06:15;7.50;99.90
15152;DHT22;7676;50.900;6.234;2024-02-23T13:21:18;8.10;99.90
15152;DHT22;7676;50.900;6.234;2024-02-23T13:36:20;8.30;99.90
15152;DHT22;7676;50.900;6.234;2024-02-23T13:51:23;8.20;99.90
15152;DHT22;7676;50.900;6.234;2024-02-23T14:06:25;8.10;99.90
15152;DHT22;7676;50.900;6.234;2024-02-23T14:21:28;8.00;99.90
15152;DHT22;7676;50.900;6.234;2024-02-23T14:36:31;7.90;99.90
15152;DHT22;7676;50.900;6.234;2024-02-23T14:51:36;8.00;99.90
15152;DHT22;7676;50.900;6.234;2024-02-23T15:06:39;8.00;99.90
15152;DHT22;7676;50.900;6.234;2024-02-23T15:21:41;7.70;99.90
15152;DHT22;7676;50.900;6.234;2024-02-23T15:36:46;7.60;99.90
15152;DHT22;7676;50.900;6.234;2024-02-23T15:51:49;8.00;99.90
15152;DHT22;7676;50.900;6.234;2024-02-23T16:07:02;8.10;99.90
15152;DHT22;7676;50.900;6.234;2024-02-23T16:22:05;7.70;99.90
15152;DHT22;7676;50.900;6.234;2024-02-23T16:37:07;7.60;99.90
15152;DHT22;7676;50.900;6.234;2024-02-23T16:52:11;7.60;99.90
15152;DHT22;7676;50.900;6.234;2024-02-23T17:07:13;7.50;99.90
15152;DHT22;7676;50.900;6.234;2024-02-23T17:22:17;7.50;99.90
15152;DHT22;7676;50.900;6.234;2024-02-23T17:37:19;7.80;99.90
15152;DHT22;7676;50.900;6.234;2024-02-23T17:52:23;8.10;99.90
15152;DHT22;7676;50.900;6.234;2024-02-23T18:07:29;8.20;99.90
15152;DHT22;7676;50.900;6.234;2024-02-23T18:22:32;7.50;99.90
15152;DHT22;7676;50.900;6.234;2024-02-23T18:37:36;7.30;99.90
15152;DHT22;7676;50.900;6.234;2024-02-23T18:52:39;4.70;99.90
15152;DHT22;7676;50.900;6.234;2024-02-23T19:07:41;6.60;99.90
15152;DHT22;7676;50.900;6.234;2024-02-23T19:22:44;7.30;99.90
15152;DHT22;7676;50.900;6.234;2024-02-23T19:37:47;6.30;99.90
15152;DHT22;7676;50.900;6.234;2024-02-23T19:52:50;6.30;99.90
15152;DHT22;7676;50.900;6.234;2024-02-23T20:07:53;6.10;99.90
15152;DHT22;7676;50.900;6.234;2024-02-23T20:22:56;6.30;99.90
15152;DHT22;7676;50.900;6.234;2024-02-23T20:37:58;6.40;99.90
15152;DHT22;7676;50.900;6.234;2024-02-23T20:53:01;6.30;99.90
15152;DHT22;7676;50.900;6.234;2024-02-23T21:08:04;6.40;99.90
15152;DHT22;7676;50.900;6.234;2024-02-23T21:23:08;6.20;99.90
15152;DHT22;7676;50.900;6.234;2024-02-23T21:38:10;6.00;99.90
15152;DHT22;7676;50.900;6.234;2024-02-23T21:53:14;5.80;99.90
15152;DHT22;7676;50.900;6.234;2024-02-23T22:08:17;5.80;99.90
15152;DHT22;7676;50.900;6.234;2024-02-23T22:23:20;5.80;99.90
15152;DHT22;7676;50.900;6.234;2024-02-23T22:38:23;5.90;99.90
15152;DHT22;7676;50.900;6.234;2024-02-23T22:53:25;5.90;99.90
15152;DHT22;7676;50.900;6.234;2024-02-23T23:08:33;6.10;99.90
15152;DHT22;7676;50.900;6.234;2024-02-23T23:23:36;6.20;99.90
15152;DHT22;7676;50.900;6.234;2024-02-23T23:38:40;6.20;99.90
15152;DHT22;7676;50.900;6.234;2024-02-23T23:53:44;6.30;99.90
